sensor_id;sensor_type;location;lat;lon;timestamp;pressure;altitude;pressure_sealevel;temperature;humidity
53960;BME280;39866;48.638;-2.020;2023-08-30T00:00:17;100966.84;;;20.81;100.00
53960;BME280;39866;48.638;-2.020;2023-08-30T00:02:46;100966.44;;;20.74;100.00
53960;BME280;39866;48.638;-2.020;2023-08-30T00:05:11;100968.88;;;20.64;100.00
53960;BME280;39866;48.638;-2.020;2023-08-30T00:07:37;100966.13;;;20.51;100.00
53960;BME280;39866;48.638;-2.020;2023-08-30T00:10:02;100966.22;;;20.36;100.00
53960;BME280;39866;48.638;-2.020;2023-08-30T00:12:29;100956.50;;;20.33;100.00
53960;BME280;39866;48.638;-2.020;2023-08-30T00:14:55;100952.03;;;20.32;100.00
53960;BME280;39866;48.638;-2.020;2023-08-30T00:17:20;100942.31;;;20.29;100.00
53960;BME280;39866;48.638;-2.020;2023-08-30T00:19:46;100944.41;;;20.39;100.00
53960;BME280;39866;48.638;-2.020;2023-08-30T00:22:12;100934.44;;;20.39;100.00
53960;BME280;39866;48.638;-2.020;2023-08-30T00:24:37;100942.63;;;20.52;100.00
53960;BME280;39866;48.638;-2.020;2023-08-30T00:27:03;100934.13;;;20.58;100.00
53960;BME280;39866;48.638;-2.020;2023-08-30T00:29:29;100935.63;;;20.49;100.00
53960;BME280;39866;48.638;-2.020;2023-08-30T00:31:54;100932.59;;;20.54;100.00
53960;BME280;39866;48.638;-2.020;2023-08-30T00:34:20;100933.25;;;20.58;100.00
53960;BME280;39866;48.638;-2.020;2023-08-30T00:36:45;100926.97;;;20.57;100.00
53960;BME280;39866;48.638;-2.020;2023-08-30T00:39:11;100921.28;;;20.47;100.00
53960;BME280;39866;48.638;-2.020;2023-08-30T00:41:36;100923.19;;;20.60;100.00
53960;BME280;39866;48.638;-2.020;2023-08-30T00:44:02;100925.50;;;20.66;100.00
53960;BME280;39866;48.638;-2.020;2023-08-30T00:46:27;100923.66;;;20.66;100.00
53960;BME280;39866;48.638;-2.020;2023-08-30T00:48:53;100921.97;;;20.51;100.00
53960;BME280;39866;48.638;-2.020;2023-08-30T00:51:19;100924.59;;;20.65;100.00
53960;BME280;39866;48.638;-2.020;2023-08-30T00:53:44;100928.28;;;20.64;100.00
53960;BME280;39866;48.638;-2.020;2023-08-30T00:56:10;100925.59;;;20.64;100.00
53960;BME280;39866;48.638;-2.020;2023-08-30T00:58:37;100922.22;;;20.61;100.00
53960;BME280;39866;48.638;-2.020;2023-08-30T01:01:04;100925.03;;;20.59;100.00
53960;BME280;39866;48.638;-2.020;2023-08-30T01:03:32;100917.72;;;20.47;100.00
53960;BME280;39866;48.638;-2.020;2023-08-30T01:05:57;100921.97;;;20.51;100.00
53960;BME280;39866;48.638;-2.020;2023-08-30T01:08:23;100914.97;;;20.61;100.00
53960;BME280;39866;48.638;-2.020;2023-08-30T01:13:42;100910.56;;;20.73;100.00
53960;BME280;39866;48.638;-2.020;2023-08-30T01:16:10;100925.88;;;20.87;100.00
53960;BME280;39866;48.638;-2.020;2023-08-30T01:18:37;100917.81;;;20.72;100.00
53960;BME280;39866;48.638;-2.020;2023-08-30T01:21:05;100912.91;;;20.65;100.00
53960;BME280;39866;48.638;-2.020;2023-08-30T01:23:49;100929.50;;;20.46;100.00
53960;BME280;39866;48.638;-2.020;2023-08-30T01:26:36;100920.28;;;20.63;100.00
53960;BME280;39866;48.638;-2.020;2023-08-30T01:29:05;100927.88;;;20.70;100.00
53960;BME280;39866;48.638;-2.020;2023-08-30T01:31:32;100930.75;;;20.94;100.00
53960;BME280;39866;48.638;-2.020;2023-08-30T01:33:59;100926.94;;;20.84;100.00
53960;BME280;39866;48.638;-2.020;2023-08-30T01:36:25;100920.66;;;20.84;100.00
53960;BME280;39866;48.638;-2.020;2023-08-30T01:38:51;100916.44;;;20.80;100.00
53960;BME280;39866;48.638;-2.020;2023-08-30T01:41:18;100909.84;;;20.84;100.00
53960;BME280;39866;48.638;-2.020;2023-08-30T01:43:45;100921.84;;;20.80;100.00
53960;BME280;39866;48.638;-2.020;2023-08-30T01:46:12;100920.97;;;20.79;100.00
53960;BME280;39866;48.638;-2.020;2023-08-30T01:48:39;100909.91;;;20.69;100.00
53960;BME280;39866;48.638;-2.020;2023-08-30T01:51:06;100909.28;;;20.78;100.00
53960;BME280;39866;48.638;-2.020;2023-08-30T01:53:32;100907.31;;;20.81;100.00
53960;BME280;39866;48.638;-2.020;2023-08-30T01:55:58;100896.75;;;20.90;100.00
53960;BME280;39866;48.638;-2.020;2023-08-30T01:58:23;100898.91;;;20.98;100.00
53960;BME280;39866;48.638;-2.020;2023-08-30T02:00:48;100891.88;;;20.95;100.00
53960;BME280;39866;48.638;-2.020;2023-08-30T02:03:14;100895.44;;;20.96;100.00
53960;BME280;39866;48.638;-2.020;2023-08-30T02:05:57;100901.06;;;20.93;100.00
53960;BME280;39866;48.638;-2.020;2023-08-30T02:08:33;100906.94;;;20.87;100.00
53960;BME280;39866;48.638;-2.020;2023-08-30T02:11:01;100897.84;;;21.00;100.00
53960;BME280;39866;48.638;-2.020;2023-08-30T02:13:30;100898.69;;;21.14;100.00
53960;BME280;39866;48.638;-2.020;2023-08-30T02:15:56;100892.22;;;21.03;100.00
53960;BME280;39866;48.638;-2.020;2023-08-30T02:18:25;100891.75;;;21.10;100.00
53960;BME280;39866;48.638;-2.020;2023-08-30T02:20:50;100891.34;;;21.03;100.00
53960;BME280;39866;48.638;-2.020;2023-08-30T02:23:16;100881.81;;;20.97;100.00
53960;BME280;39866;48.638;-2.020;2023-08-30T02:25:41;100880.06;;;20.96;100.00
53960;BME280;39866;48.638;-2.020;2023-08-30T02:28:07;100889.50;;;21.16;100.00
53960;BME280;39866;48.638;-2.020;2023-08-30T02:30:32;100890.69;;;21.12;100.00
53960;BME280;39866;48.638;-2.020;2023-08-30T02:32:57;100891.56;;;21.13;100.00
53960;BME280;39866;48.638;-2.020;2023-08-30T02:35:23;100892.75;;;21.09;100.00
53960;BME280;39866;48.638;-2.020;2023-08-30T02:37:48;100898.03;;;21.10;100.00
53960;BME280;39866;48.638;-2.020;2023-08-30T02:40:13;100904.03;;;21.02;100.00
53960;BME280;39866;48.638;-2.020;2023-08-30T02:42:39;100906.06;;;20.99;100.00
53960;BME280;39866;48.638;-2.020;2023-08-30T02:45:04;100905.63;;;20.92;100.00
53960;BME280;39866;48.638;-2.020;2023-08-30T02:47:30;100908.84;;;20.85;100.00
53960;BME280;39866;48.638;-2.020;2023-08-30T02:49:55;100891.97;;;20.94;100.00
53960;BME280;39866;48.638;-2.020;2023-08-30T02:52:21;100899.47;;;21.03;100.00
53960;BME280;39866;48.638;-2.020;2023-08-30T02:54:46;100906.59;;;21.04;100.00
53960;BME280;39866;48.638;-2.020;2023-08-30T02:57:11;100894.81;;;21.05;100.00
53960;BME280;39866;48.638;-2.020;2023-08-30T02:59:37;100891.88;;;21.08;100.00
53960;BME280;39866;48.638;-2.020;2023-08-30T03:02:02;100893.72;;;21.08;100.00
53960;BME280;39866;48.638;-2.020;2023-08-30T03:04:27;100890.16;;;21.07;100.00
53960;BME280;39866;48.638;-2.020;2023-08-30T03:06:53;100888.53;;;21.05;100.00
53960;BME280;39866;48.638;-2.020;2023-08-30T03:09:18;100890.38;;;21.04;100.00
53960;BME280;39866;48.638;-2.020;2023-08-30T03:11:44;100884.41;;;21.12;100.00
53960;BME280;39866;48.638;-2.020;2023-08-30T03:14:09;100881.81;;;21.10;100.00
53960;BME280;39866;48.638;-2.020;2023-08-30T03:16:34;100883.00;;;21.32;100.00
53960;BME280;39866;48.638;-2.020;2023-08-30T03:19:00;100879.75;;;21.14;100.00
53960;BME280;39866;48.638;-2.020;2023-08-30T03:21:25;100873.16;;;21.05;100.00
53960;BME280;39866;48.638;-2.020;2023-08-30T03:23:51;100872.41;;;21.03;100.00
53960;BME280;39866;48.638;-2.020;2023-08-30T03:26:16;100873.59;;;20.99;100.00
53960;BME280;39866;48.638;-2.020;2023-08-30T03:28:43;100878.34;;;21.21;100.00
53960;BME280;39866;48.638;-2.020;2023-08-30T03:31:16;100879.53;;;21.30;100.00
53960;BME280;39866;48.638;-2.020;2023-08-30T03:33:42;100871.84;;;20.98;100.00
53960;BME280;39866;48.638;-2.020;2023-08-30T03:36:10;100877.28;;;21.11;100.00
53960;BME280;39866;48.638;-2.020;2023-08-30T03:38:36;100872.94;;;21.34;100.00
53960;BME280;39866;48.638;-2.020;2023-08-30T03:41:05;100868.91;;;21.26;100.00
53960;BME280;39866;48.638;-2.020;2023-08-30T03:43:31;100863.81;;;21.22;100.00
53960;BME280;39866;48.638;-2.020;2023-08-30T03:45:59;100862.91;;;21.36;100.00
53960;BME280;39866;48.638;-2.020;2023-08-30T03:48:26;100867.94;;;21.02;100.00
53960;BME280;39866;48.638;-2.020;2023-08-30T03:50:51;100861.47;;;21.05;100.00
53960;BME280;39866;48.638;-2.020;2023-08-30T03:53:17;100866.88;;;21.05;100.00
53960;BME280;39866;48.638;-2.020;2023-08-30T03:55:42;100864.38;;;21.01;100.00
53960;BME280;39866;48.638;-2.020;2023-08-30T03:58:07;100858.75;;;20.79;100.00
53960;BME280;39866;48.638;-2.020;2023-08-30T04:00:36;100861.91;;;20.98;100.00
53960;BME280;39866;48.638;-2.020;2023-08-30T04:03:01;100862.31;;;20.92;100.00
53960;BME280;39866;48.638;-2.020;2023-08-30T04:05:27;100862.31;;;20.80;100.00
53960;BME280;39866;48.638;-2.020;2023-08-30T04:07:52;100857.88;;;20.66;100.00
53960;BME280;39866;48.638;-2.020;2023-08-30T04:10:17;100870.44;;;20.92;100.00
53960;BME280;39866;48.638;-2.020;2023-08-30T04:12:43;100863.38;;;20.77;100.00
53960;BME280;39866;48.638;-2.020;2023-08-30T04:15:08;100864.47;;;20.62;100.00
53960;BME280;39866;48.638;-2.020;2023-08-30T04:17:35;100867.03;;;20.50;100.00
53960;BME280;39866;48.638;-2.020;2023-08-30T04:20:01;100866.38;;;20.33;100.00
53960;BME280;39866;48.638;-2.020;2023-08-30T04:22:26;100876.75;;;20.53;100.00
53960;BME280;39866;48.638;-2.020;2023-08-30T04:24:51;100870.63;;;20.64;100.00
53960;BME280;39866;48.638;-2.020;2023-08-30T04:27:17;100864.19;;;20.52;100.00
53960;BME280;39866;48.638;-2.020;2023-08-30T04:29:42;100862.16;;;20.56;100.00
53960;BME280;39866;48.638;-2.020;2023-08-30T04:32:10;100855.72;;;20.71;100.00
53960;BME280;39866;48.638;-2.020;2023-08-30T04:34:35;100863.22;;;20.53;100.00
53960;BME280;39866;48.638;-2.020;2023-08-30T04:37:01;100863.63;;;20.47;100.00
53960;BME280;39866;48.638;-2.020;2023-08-30T04:39:26;100860.97;;;20.60;100.00
53960;BME280;39866;48.638;-2.020;2023-08-30T04:41:51;100869.97;;;20.60;100.00
53960;BME280;39866;48.638;-2.020;2023-08-30T04:44:17;100869.72;;;20.50;100.00
53960;BME280;39866;48.638;-2.020;2023-08-30T04:46:44;100871.13;;;20.56;100.00
53960;BME280;39866;48.638;-2.020;2023-08-30T04:49:09;100869.22;;;20.71;100.00
53960;BME280;39866;48.638;-2.020;2023-08-30T04:51:35;100875.38;;;20.60;100.00
53960;BME280;39866;48.638;-2.020;2023-08-30T04:54:00;100874.31;;;20.63;100.00
53960;BME280;39866;48.638;-2.020;2023-08-30T04:56:25;100874.81;;;20.55;100.00
53960;BME280;39866;48.638;-2.020;2023-08-30T04:58:51;100866.00;;;20.66;100.00
53960;BME280;39866;48.638;-2.020;2023-08-30T05:01:16;100869.63;;;20.65;100.00
53960;BME280;39866;48.638;-2.020;2023-08-30T05:03:42;100868.78;;;20.64;100.00
53960;BME280;39866;48.638;-2.020;2023-08-30T05:06:07;100868.94;;;20.48;100.00
53960;BME280;39866;48.638;-2.020;2023-08-30T05:08:33;100875.75;;;20.41;100.00
53960;BME280;39866;48.638;-2.020;2023-08-30T05:10:58;100875.50;;;20.71;100.00
53960;BME280;39866;48.638;-2.020;2023-08-30T05:13:23;100876.81;;;20.78;100.00
53960;BME280;39866;48.638;-2.020;2023-08-30T05:15:49;100882.28;;;20.51;100.00
53960;BME280;39866;48.638;-2.020;2023-08-30T05:18:14;100876.44;;;20.31;100.00
53960;BME280;39866;48.638;-2.020;2023-08-30T05:20:39;100872.13;;;20.41;100.00
53960;BME280;39866;48.638;-2.020;2023-08-30T05:23:05;100881.44;;;20.37;100.00
53960;BME280;39866;48.638;-2.020;2023-08-30T05:25:30;100883.47;;;20.60;100.00
53960;BME280;39866;48.638;-2.020;2023-08-30T05:27:55;100874.56;;;20.45;100.00
53960;BME280;39866;48.638;-2.020;2023-08-30T05:30:21;100881.81;;;20.18;100.00
53960;BME280;39866;48.638;-2.020;2023-08-30T05:32:46;100889.38;;;20.13;100.00
53960;BME280;39866;48.638;-2.020;2023-08-30T05:35:11;100878.44;;;20.14;100.00
53960;BME280;39866;48.638;-2.020;2023-08-30T05:37:37;100879.63;;;19.96;100.00
53960;BME280;39866;48.638;-2.020;2023-08-30T05:40:02;100878.84;;;20.08;100.00
53960;BME280;39866;48.638;-2.020;2023-08-30T05:42:29;100885.22;;;20.07;100.00
53960;BME280;39866;48.638;-2.020;2023-08-30T05:44:54;100879.47;;;20.26;100.00
53960;BME280;39866;48.638;-2.020;2023-08-30T05:47:20;100876.22;;;20.21;100.00
53960;BME280;39866;48.638;-2.020;2023-08-30T05:49:46;100875.78;;;20.27;100.00
53960;BME280;39866;48.638;-2.020;2023-08-30T05:52:12;100883.69;;;20.03;100.00
53960;BME280;39866;48.638;-2.020;2023-08-30T05:54:37;100881.25;;;20.13;100.00
53960;BME280;39866;48.638;-2.020;2023-08-30T05:57:02;100888.22;;;20.02;100.00
53960;BME280;39866;48.638;-2.020;2023-08-30T05:59:28;100884.53;;;20.18;100.00
53960;BME280;39866;48.638;-2.020;2023-08-30T06:01:53;100883.16;;;20.25;100.00
53960;BME280;39866;48.638;-2.020;2023-08-30T06:04:19;100892.13;;;20.25;100.00
53960;BME280;39866;48.638;-2.020;2023-08-30T06:06:45;100884.97;;;19.97;100.00
53960;BME280;39866;48.638;-2.020;2023-08-30T06:09:10;100895.41;;;20.16;100.00
53960;BME280;39866;48.638;-2.020;2023-08-30T06:11:37;100906.50;;;20.26;100.00
53960;BME280;39866;48.638;-2.020;2023-08-30T06:14:03;100904.09;;;20.21;100.00
53960;BME280;39866;48.638;-2.020;2023-08-30T06:16:28;100908.47;;;20.37;100.00
53960;BME280;39866;48.638;-2.020;2023-08-30T06:18:54;100905.06;;;20.47;100.00
53960;BME280;39866;48.638;-2.020;2023-08-30T06:21:19;100901.34;;;20.36;100.00
53960;BME280;39866;48.638;-2.020;2023-08-30T06:23:44;100912.78;;;20.26;100.00
53960;BME280;39866;48.638;-2.020;2023-08-30T06:26:10;100910.97;;;20.54;100.00
53960;BME280;39866;48.638;-2.020;2023-08-30T06:28:35;100907.47;;;20.52;100.00
53960;BME280;39866;48.638;-2.020;2023-08-30T06:31:00;100901.59;;;20.45;100.00
53960;BME280;39866;48.638;-2.020;2023-08-30T06:33:26;100912.50;;;20.58;100.00
53960;BME280;39866;48.638;-2.020;2023-08-30T06:35:51;100910.66;;;20.59;100.00
53960;BME280;39866;48.638;-2.020;2023-08-30T06:38:18;100907.16;;;20.57;100.00
53960;BME280;39866;48.638;-2.020;2023-08-30T06:40:44;100907.59;;;20.50;100.00
53960;BME280;39866;48.638;-2.020;2023-08-30T06:43:10;100912.50;;;20.58;100.00
53960;BME280;39866;48.638;-2.020;2023-08-30T06:45:35;100906.84;;;20.61;100.00
53960;BME280;39866;48.638;-2.020;2023-08-30T06:48:00;100907.00;;;20.72;100.00
53960;BME280;39866;48.638;-2.020;2023-08-30T06:50:26;100912.94;;;20.77;100.00
53960;BME280;39866;48.638;-2.020;2023-08-30T06:52:51;100912.25;;;20.61;100.00
53960;BME280;39866;48.638;-2.020;2023-08-30T06:55:16;100912.06;;;20.64;100.00
53960;BME280;39866;48.638;-2.020;2023-08-30T06:57:47;100913.84;;;20.78;100.00
53960;BME280;39866;48.638;-2.020;2023-08-30T07:00:13;100915.75;;;20.76;100.00
53960;BME280;39866;48.638;-2.020;2023-08-30T07:02:39;100916.19;;;20.70;100.00
53960;BME280;39866;48.638;-2.020;2023-08-30T07:05:05;100922.03;;;20.76;100.00
53960;BME280;39866;48.638;-2.020;2023-08-30T07:07:31;100916.31;;;20.81;100.00
53960;BME280;39866;48.638;-2.020;2023-08-30T07:09:57;100913.44;;;20.57;100.00
53960;BME280;39866;48.638;-2.020;2023-08-30T07:12:22;100922.53;;;20.56;100.00
53960;BME280;39866;48.638;-2.020;2023-08-30T07:14:48;100916.41;;;20.67;100.00
53960;BME280;39866;48.638;-2.020;2023-08-30T07:17:13;100925.94;;;20.72;100.00
53960;BME280;39866;48.638;-2.020;2023-08-30T07:19:39;100928.75;;;20.71;100.00
53960;BME280;39866;48.638;-2.020;2023-08-30T07:22:04;100926.88;;;20.59;100.00
53960;BME280;39866;48.638;-2.020;2023-08-30T07:24:30;100940.28;;;20.60;100.00
53960;BME280;39866;48.638;-2.020;2023-08-30T07:26:55;100941.88;;;20.50;100.00
53960;BME280;39866;48.638;-2.020;2023-08-30T07:29:20;100940.19;;;20.62;100.00
53960;BME280;39866;48.638;-2.020;2023-08-30T07:31:46;100946.25;;;20.65;100.00
53960;BME280;39866;48.638;-2.020;2023-08-30T07:34:12;100942.16;;;20.72;100.00
53960;BME280;39866;48.638;-2.020;2023-08-30T07:36:37;100936.25;;;20.93;100.00
53960;BME280;39866;48.638;-2.020;2023-08-30T07:39:03;100938.13;;;21.05;100.00
53960;BME280;39866;48.638;-2.020;2023-08-30T07:41:28;100939.09;;;21.17;100.00
53960;BME280;39866;48.638;-2.020;2023-08-30T07:43:54;100929.97;;;20.92;100.00
53960;BME280;39866;48.638;-2.020;2023-08-30T07:46:19;100930.50;;;20.85;100.00
53960;BME280;39866;48.638;-2.020;2023-08-30T07:48:44;100929.91;;;21.07;100.00
53960;BME280;39866;48.638;-2.020;2023-08-30T07:51:10;100937.88;;;20.83;100.00
53960;BME280;39866;48.638;-2.020;2023-08-30T07:53:36;100941.41;;;20.70;100.00
53960;BME280;39866;48.638;-2.020;2023-08-30T07:56:01;100932.16;;;20.60;100.00
53960;BME280;39866;48.638;-2.020;2023-08-30T07:58:27;100948.03;;;20.79;100.00
53960;BME280;39866;48.638;-2.020;2023-08-30T08:00:52;100954.13;;;20.95;100.00
53960;BME280;39866;48.638;-2.020;2023-08-30T08:03:20;100958.59;;;21.22;100.00
53960;BME280;39866;48.638;-2.020;2023-08-30T08:05:45;100962.13;;;21.37;100.00
53960;BME280;39866;48.638;-2.020;2023-08-30T08:08:11;100962.41;;;21.19;100.00
53960;BME280;39866;48.638;-2.020;2023-08-30T08:10:36;100965.69;;;21.37;100.00
53960;BME280;39866;48.638;-2.020;2023-08-30T08:13:02;100958.41;;;21.38;100.00
53960;BME280;39866;48.638;-2.020;2023-08-30T08:15:29;100966.97;;;21.57;100.00
53960;BME280;39866;48.638;-2.020;2023-08-30T08:17:56;100973.81;;;21.50;100.00
53960;BME280;39866;48.638;-2.020;2023-08-30T08:20:21;100964.94;;;21.61;100.00
53960;BME280;39866;48.638;-2.020;2023-08-30T08:22:47;100974.00;;;21.47;100.00
53960;BME280;39866;48.638;-2.020;2023-08-30T08:25:12;100967.53;;;21.62;100.00
53960;BME280;39866;48.638;-2.020;2023-08-30T08:27:38;100972.94;;;21.49;100.00
53960;BME280;39866;48.638;-2.020;2023-08-30T08:30:04;100977.81;;;21.57;100.00
53960;BME280;39866;48.638;-2.020;2023-08-30T08:32:30;100965.47;;;21.66;100.00
53960;BME280;39866;48.638;-2.020;2023-08-30T08:34:56;100966.22;;;21.55;100.00
53960;BME280;39866;48.638;-2.020;2023-08-30T08:37:22;100969.03;;;21.41;100.00
53960;BME280;39866;48.638;-2.020;2023-08-30T08:39:47;100967.72;;;21.34;100.00
53960;BME280;39866;48.638;-2.020;2023-08-30T08:42:18;100963.75;;;21.52;100.00
53960;BME280;39866;48.638;-2.020;2023-08-30T08:44:46;100971.53;;;21.44;100.00
53960;BME280;39866;48.638;-2.020;2023-08-30T08:47:12;100978.56;;;21.59;100.00
53960;BME280;39866;48.638;-2.020;2023-08-30T08:49:38;100975.88;;;21.72;100.00
53960;BME280;39866;48.638;-2.020;2023-08-30T08:52:05;100978.03;;;21.67;100.00
53960;BME280;39866;48.638;-2.020;2023-08-30T08:54:31;100983.75;;;21.88;100.00
53960;BME280;39866;48.638;-2.020;2023-08-30T08:56:57;100981.47;;;21.94;100.00
53960;BME280;39866;48.638;-2.020;2023-08-30T08:59:23;100987.53;;;21.98;100.00
53960;BME280;39866;48.638;-2.020;2023-08-30T09:01:49;100980.69;;;22.05;100.00
53960;BME280;39866;48.638;-2.020;2023-08-30T09:04:14;100987.53;;;21.98;100.00
53960;BME280;39866;48.638;-2.020;2023-08-30T09:06:40;100998.03;;;22.15;100.00
53960;BME280;39866;48.638;-2.020;2023-08-30T09:09:06;100987.50;;;22.23;100.00
53960;BME280;39866;48.638;-2.020;2023-08-30T09:11:33;100982.44;;;21.93;100.00
53960;BME280;39866;48.638;-2.020;2023-08-30T09:13:59;100983.56;;;21.65;100.00
53960;BME280;39866;48.638;-2.020;2023-08-30T09:16:24;100985.84;;;21.46;99.11
53960;BME280;39866;48.638;-2.020;2023-08-30T09:19:01;100988.22;;;21.63;97.61
53960;BME280;39866;48.638;-2.020;2023-08-30T09:21:27;100991.56;;;21.80;97.27
53960;BME280;39866;48.638;-2.020;2023-08-30T09:24:03;100989.50;;;21.83;94.51
53960;BME280;39866;48.638;-2.020;2023-08-30T09:26:29;100982.53;;;21.92;95.11
53960;BME280;39866;48.638;-2.020;2023-08-30T09:29:01;100987.78;;;21.82;91.87
53960;BME280;39866;48.638;-2.020;2023-08-30T09:31:33;100979.53;;;21.84;90.16
53960;BME280;39866;48.638;-2.020;2023-08-30T09:33:58;100987.75;;;21.95;92.66
53960;BME280;39866;48.638;-2.020;2023-08-30T09:36:24;100977.78;;;21.95;93.09
53960;BME280;39866;48.638;-2.020;2023-08-30T09:38:49;100986.25;;;21.91;91.48
53960;BME280;39866;48.638;-2.020;2023-08-30T09:41:15;100994.25;;;22.05;92.43
53960;BME280;39866;48.638;-2.020;2023-08-30T09:43:44;100993.69;;;22.00;95.70
53960;BME280;39866;48.638;-2.020;2023-08-30T09:46:09;101005.50;;;22.12;97.30
53960;BME280;39866;48.638;-2.020;2023-08-30T09:48:37;101003.13;;;22.07;95.66
53960;BME280;39866;48.638;-2.020;2023-08-30T09:51:03;101012.13;;;22.08;99.32
53960;BME280;39866;48.638;-2.020;2023-08-30T09:53:29;101009.88;;;22.14;98.72
53960;BME280;39866;48.638;-2.020;2023-08-30T09:55:58;101013.09;;;22.19;98.88
53960;BME280;39866;48.638;-2.020;2023-08-30T09:58:25;101019.31;;;22.21;100.00
53960;BME280;39866;48.638;-2.020;2023-08-30T10:00:53;101026.31;;;22.24;97.20
53960;BME280;39866;48.638;-2.020;2023-08-30T10:03:18;101022.63;;;22.38;96.04
53960;BME280;39866;48.638;-2.020;2023-08-30T10:05:45;101015.44;;;22.37;95.04
53960;BME280;39866;48.638;-2.020;2023-08-30T10:08:13;101023.66;;;22.48;96.74
53960;BME280;39866;48.638;-2.020;2023-08-30T10:10:39;101018.72;;;22.42;97.47
53960;BME280;39866;48.638;-2.020;2023-08-30T10:13:05;101024.56;;;22.36;95.14
53960;BME280;39866;48.638;-2.020;2023-08-30T10:15:33;101024.78;;;22.33;93.33
53960;BME280;39866;48.638;-2.020;2023-08-30T10:18:01;101025.59;;;22.22;90.14
53960;BME280;39866;48.638;-2.020;2023-08-30T10:20:28;101018.94;;;22.39;90.57
53960;BME280;39866;48.638;-2.020;2023-08-30T10:22:55;101020.03;;;22.23;95.21
53960;BME280;39866;48.638;-2.020;2023-08-30T10:25:27;101026.63;;;22.32;95.33
53960;BME280;39866;48.638;-2.020;2023-08-30T10:27:55;101016.28;;;22.50;94.56
53960;BME280;39866;48.638;-2.020;2023-08-30T10:30:21;101018.53;;;22.56;95.36
53960;BME280;39866;48.638;-2.020;2023-08-30T10:32:48;101022.09;;;22.57;94.51
53960;BME280;39866;48.638;-2.020;2023-08-30T10:35:14;101008.72;;;22.42;94.02
53960;BME280;39866;48.638;-2.020;2023-08-30T10:37:40;100999.50;;;22.32;91.80
53960;BME280;39866;48.638;-2.020;2023-08-30T10:40:07;101003.50;;;22.39;93.79
53960;BME280;39866;48.638;-2.020;2023-08-30T10:42:32;101000.53;;;22.18;93.65
53960;BME280;39866;48.638;-2.020;2023-08-30T10:47:34;101005.97;;;22.18;88.34
53960;BME280;39866;48.638;-2.020;2023-08-30T10:50:10;101008.47;;;22.21;88.72
53960;BME280;39866;48.638;-2.020;2023-08-30T10:52:36;101006.94;;;22.17;86.17
53960;BME280;39866;48.638;-2.020;2023-08-30T10:55:15;101005.63;;;22.23;83.09
53960;BME280;39866;48.638;-2.020;2023-08-30T10:57:44;101011.72;;;22.14;83.91
53960;BME280;39866;48.638;-2.020;2023-08-30T11:00:20;101021.78;;;22.24;82.09
53960;BME280;39866;48.638;-2.020;2023-08-30T11:02:49;101010.56;;;22.42;82.86
53960;BME280;39866;48.638;-2.020;2023-08-30T11:05:16;101010.09;;;22.48;84.02
53960;BME280;39866;48.638;-2.020;2023-08-30T11:07:43;101013.88;;;22.58;83.24
53960;BME280;39866;48.638;-2.020;2023-08-30T11:10:09;101015.88;;;22.67;84.07
53960;BME280;39866;48.638;-2.020;2023-08-30T11:12:34;101017.44;;;22.83;82.81
53960;BME280;39866;48.638;-2.020;2023-08-30T11:15:00;101014.25;;;22.65;80.25
53960;BME280;39866;48.638;-2.020;2023-08-30T11:17:27;101014.59;;;22.60;81.71
53960;BME280;39866;48.638;-2.020;2023-08-30T11:20:10;101023.34;;;22.77;83.75
53960;BME280;39866;48.638;-2.020;2023-08-30T11:22:46;101026.88;;;22.53;82.34
53960;BME280;39866;48.638;-2.020;2023-08-30T11:25:13;101014.38;;;22.39;83.42
53960;BME280;39866;48.638;-2.020;2023-08-30T11:27:39;101022.16;;;22.44;84.93
53960;BME280;39866;48.638;-2.020;2023-08-30T11:30:05;101016.50;;;22.47;84.47
53960;BME280;39866;48.638;-2.020;2023-08-30T11:32:35;101018.25;;;22.48;81.82
53960;BME280;39866;48.638;-2.020;2023-08-30T11:35:02;101018.06;;;22.38;79.91
53960;BME280;39866;48.638;-2.020;2023-08-30T11:37:28;101011.16;;;22.21;80.08
53960;BME280;39866;48.638;-2.020;2023-08-30T11:39:54;101009.00;;;22.14;79.46
53960;BME280;39866;48.638;-2.020;2023-08-30T11:42:21;101004.06;;;22.32;77.39
53960;BME280;39866;48.638;-2.020;2023-08-30T11:44:47;101012.69;;;22.25;77.35
53960;BME280;39866;48.638;-2.020;2023-08-30T11:47:39;101015.59;;;22.10;76.74
53960;BME280;39866;48.638;-2.020;2023-08-30T11:50:05;101012.69;;;22.25;78.64
53960;BME280;39866;48.638;-2.020;2023-08-30T11:52:32;100998.88;;;22.29;78.59
53960;BME280;39866;48.638;-2.020;2023-08-30T11:54:57;101012.22;;;22.32;78.66
53960;BME280;39866;48.638;-2.020;2023-08-30T11:57:23;101005.31;;;22.15;81.78
53960;BME280;39866;48.638;-2.020;2023-08-30T11:59:48;101001.81;;;22.25;82.09
53960;BME280;39866;48.638;-2.020;2023-08-30T12:02:16;101014.09;;;22.18;85.55
53960;BME280;39866;48.638;-2.020;2023-08-30T12:04:43;101011.91;;;22.23;83.83
53960;BME280;39866;48.638;-2.020;2023-08-30T12:07:10;101008.28;;;22.36;84.92
53960;BME280;39866;48.638;-2.020;2023-08-30T12:09:45;101000.31;;;22.21;80.79
53960;BME280;39866;48.638;-2.020;2023-08-30T12:12:11;101008.34;;;22.10;81.91
53960;BME280;39866;48.638;-2.020;2023-08-30T12:14:37;101011.91;;;22.23;80.84
53960;BME280;39866;48.638;-2.020;2023-08-30T12:17:03;101005.75;;;22.21;79.93
53960;BME280;39866;48.638;-2.020;2023-08-30T12:19:28;101028.19;;;22.11;81.31
53960;BME280;39866;48.638;-2.020;2023-08-30T12:21:54;101024.09;;;22.18;82.70
53960;BME280;39866;48.638;-2.020;2023-08-30T12:24:19;101015.91;;;22.31;82.36
53960;BME280;39866;48.638;-2.020;2023-08-30T12:26:45;101018.97;;;22.26;82.00
53960;BME280;39866;48.638;-2.020;2023-08-30T12:29:10;101033.25;;;22.28;83.65
53960;BME280;39866;48.638;-2.020;2023-08-30T12:31:35;101038.28;;;22.21;84.22
53960;BME280;39866;48.638;-2.020;2023-08-30T12:34:01;101017.19;;;22.38;83.24